Cherokee Observed Data For Previous 48 Hours

Caption
Day and Hour Reservoir Elevation (behind dam)* Tailwater Elevation (below dam)* Average Hourly Discharge*
9/20/2017 2 AM EDT 1,057.11 921.06 0
9/20/2017 3 AM EDT 1,057.12 921.06 0
9/20/2017 4 AM EDT 1,057.12 921.06 0
9/20/2017 5 AM EDT 1,057.13 921.44 31
9/20/2017 6 AM EDT 1,057.13 921.60 2,155
9/20/2017 7 AM EDT 1,057.14 921.07 0
9/20/2017 8 AM EDT 1,057.15 921.06 0
9/20/2017 9 AM EDT 1,057.16 921.06 0
9/20/2017 10 AM EDT 1,057.17 921.06 0
9/20/2017 11 AM EDT 1,057.17 921.42 30
9/20/2017 12 PM EDT 1,057.17 923.72 3,637
9/20/2017 1 PM EDT 1,057.17 923.79 3,652
9/20/2017 2 PM EDT 1,057.18 924.04 3,653
9/20/2017 3 PM EDT 1,057.15 926.01 7,433
9/20/2017 4 PM EDT 1,057.12 927.84 11,945
9/20/2017 5 PM EDT 1,057.09 927.85 12,045
9/20/2017 6 PM EDT 1,057.06 927.87 12,025
9/20/2017 7 PM EDT 1,057.02 927.90 12,054
9/20/2017 8 PM EDT 1,057.01 925.93 7,657
9/20/2017 9 PM EDT 1,056.98 925.86 7,509
9/20/2017 10 PM EDT 1,056.98 923.83 3,759
9/20/2017 11 PM EDT 1,056.97 923.84 3,714
9/21/2017 12 AM EDT 1,056.96 923.81 3,714
9/21/2017 1 AM EDT 1,056.98 921.14 186
9/21/2017 2 AM EDT 1,056.99 921.06 0
9/21/2017 3 AM EDT 1,057.00 921.06 0
9/21/2017 4 AM EDT 1,056.99 921.06 0
9/21/2017 5 AM EDT 1,056.99 921.38 25
9/21/2017 6 AM EDT 1,057.01 921.60 2,135
9/21/2017 7 AM EDT 1,057.00 921.06 0
9/21/2017 8 AM EDT 1,057.01 921.06 0
9/21/2017 9 AM EDT 1,057.00 921.05 0
9/21/2017 10 AM EDT 1,057.01 921.05 0
9/21/2017 11 AM EDT 1,057.01 921.42 31
9/21/2017 12 PM EDT 1,057.00 923.72 3,626
9/21/2017 1 PM EDT 1,057.02 923.76 3,629
9/21/2017 2 PM EDT 1,056.99 924.03 3,641
9/21/2017 3 PM EDT 1,056.98 926.00 7,494
9/21/2017 4 PM EDT 1,056.96 927.82 11,916
9/21/2017 5 PM EDT 1,056.94 927.87 12,061
9/21/2017 6 PM EDT 1,056.89 927.94 12,174
9/21/2017 7 PM EDT 1,056.84 927.89 12,146
9/21/2017 8 PM EDT 1,056.83 925.95 7,751
9/21/2017 9 PM EDT 1,056.81 925.92 7,622
9/21/2017 10 PM EDT 1,056.81 923.90 3,848
9/21/2017 11 PM EDT 1,056.79 923.84 3,732
9/22/2017 12 AM EDT 1,056.78 923.84 3,729
9/22/2017 1 AM EDT 1,056.80 921.14 174
9/22/2017 2 AM EDT 1,056.81 921.06 0
9/22/2017 3 AM EDT 1,056.81 921.06 0
9/22/2017 4 AM EDT 1,056.81 921.06 0
9/22/2017 5 AM EDT 1,056.81 921.38 27

Elevations are in feet above sea level. Discharges are in cubic feet per second and are reported at the end of the hour.